createdAt,value
2023-04-26T00:00:11.015Z,39.08
2023-04-26T00:01:11.229Z,39.08
2023-04-26T00:02:11.468Z,39.08
2023-04-26T00:03:11.784Z,38.98
2023-04-26T00:04:12.106Z,38.98
2023-04-26T00:05:12.319Z,39.08
2023-04-26T00:06:12.388Z,38.98
2023-04-26T00:07:12.583Z,39.08
2023-04-26T00:08:12.795Z,38.98
2023-04-26T00:09:13.012Z,38.98
2023-04-26T00:10:13.220Z,38.98
2023-04-26T00:11:13.425Z,39.08
2023-04-26T00:12:13.643Z,38.98
2023-04-26T00:13:13.821Z,38.98
2023-04-26T00:14:14.023Z,38.98
2023-04-26T00:15:14.227Z,38.98
2023-04-26T00:16:14.509Z,38.98
2023-04-26T00:17:14.648Z,38.98
2023-04-26T00:18:14.872Z,38.98
2023-04-26T00:19:15.056Z,38.98
2023-04-26T00:20:15.277Z,38.98
2023-04-26T00:21:15.467Z,38.98
2023-04-26T00:22:15.716Z,38.98
2023-04-26T00:23:15.897Z,38.98
2023-04-26T00:24:16.105Z,38.98
2023-04-26T00:25:16.301Z,38.98
2023-04-26T00:26:16.509Z,38.98
2023-04-26T00:27:16.722Z,38.98
2023-04-26T00:28:16.931Z,38.98
2023-04-26T00:29:17.135Z,38.98
2023-04-26T00:30:17.351Z,38.98
2023-04-26T00:31:17.616Z,38.98
2023-04-26T00:32:17.838Z,38.98
2023-04-26T00:33:18.017Z,38.98
2023-04-26T00:34:18.200Z,38.98
2023-04-26T00:35:18.396Z,38.98
2023-04-26T00:36:18.613Z,38.98
2023-04-26T00:37:18.817Z,38.98
2023-04-26T00:38:19.035Z,38.98
2023-04-26T00:39:19.208Z,38.98
2023-04-26T00:40:19.406Z,38.98
2023-04-26T00:41:19.605Z,38.98
2023-04-26T00:42:19.823Z,38.98
2023-04-26T00:43:20.055Z,38.98
2023-04-26T00:44:20.240Z,38.98
2023-04-26T00:45:20.435Z,38.98
2023-04-26T00:46:20.699Z,38.98
2023-04-26T00:47:20.872Z,38.98
2023-04-26T00:48:21.080Z,38.98
2023-04-26T00:49:21.281Z,38.98
2023-04-26T00:50:21.492Z,38.98
2023-04-26T00:51:21.689Z,38.98
2023-04-26T00:52:21.908Z,38.98
2023-04-26T00:53:22.108Z,38.98
2023-04-26T00:54:22.319Z,38.98
2023-04-26T00:55:22.531Z,38.98
2023-04-26T00:56:22.713Z,38.98
2023-04-26T00:57:22.938Z,38.98
2023-04-26T00:58:23.129Z,38.98
2023-04-26T00:59:23.306Z,38.98
2023-04-26T01:00:23.505Z,38.98
2023-04-26T01:01:23.707Z,38.98
2023-04-26T01:02:23.982Z,38.98
2023-04-26T01:03:24.228Z,38.89
2023-04-26T01:04:24.420Z,38.98
2023-04-26T01:05:24.593Z,38.98
2023-04-26T01:06:24.786Z,38.98
2023-04-26T01:07:24.986Z,38.98
2023-04-26T01:08:25.224Z,38.98
2023-04-26T01:09:25.427Z,38.98
2023-04-26T01:10:25.660Z,38.98
2023-04-26T01:11:25.840Z,38.98
2023-04-26T01:12:26.029Z,38.98
2023-04-26T01:13:26.224Z,38.89
2023-04-26T01:14:26.419Z,38.89
2023-04-26T01:15:26.622Z,38.89
2023-04-26T01:16:26.908Z,38.89
2023-04-26T01:17:27.143Z,38.98
2023-04-26T01:18:27.338Z,38.89
2023-04-26T01:19:27.531Z,38.98
2023-04-26T01:20:27.735Z,38.98
2023-04-26T01:21:27.939Z,38.98
2023-04-26T01:22:28.135Z,38.98
2023-04-26T01:23:28.336Z,38.98
2023-04-26T01:24:28.591Z,38.89
2023-04-26T01:25:28.745Z,38.89
2023-04-26T01:26:28.952Z,38.89
2023-04-26T01:27:29.160Z,38.89
2023-04-26T01:28:29.353Z,38.89
2023-04-26T01:29:29.555Z,38.89
2023-04-26T01:30:29.741Z,38.89
2023-04-26T01:31:30.037Z,38.89
2023-04-26T01:32:30.207Z,38.89
2023-04-26T01:33:30.398Z,38.89
2023-04-26T01:34:30.605Z,38.89
2023-04-26T01:35:30.806Z,38.89
2023-04-26T01:36:30.995Z,38.89
2023-04-26T01:37:31.217Z,38.89
2023-04-26T01:38:31.387Z,38.89
2023-04-26T01:39:31.596Z,38.89
2023-04-26T01:40:31.776Z,38.89
2023-04-26T01:41:31.973Z,38.89
2023-04-26T01:42:32.171Z,38.89
2023-04-26T01:43:32.355Z,38.89
2023-04-26T01:44:32.525Z,38.89
2023-04-26T01:45:32.825Z,38.89
2023-04-26T01:46:33.048Z,38.89
2023-04-26T01:47:33.177Z,38.89
2023-04-26T01:48:33.336Z,38.89
2023-04-26T01:49:33.566Z,38.89
2023-04-26T01:50:33.700Z,38.89
2023-04-26T01:51:33.892Z,38.89
2023-04-26T01:52:34.082Z,38.89
2023-04-26T01:53:34.263Z,38.89
2023-04-26T01:54:34.466Z,38.89
2023-04-26T01:55:34.664Z,38.89
2023-04-26T01:56:34.850Z,38.89
2023-04-26T01:57:35.053Z,38.89
2023-04-26T01:58:35.240Z,38.89
2023-04-26T01:59:35.438Z,38.89
2023-04-26T02:00:35.625Z,38.89
2023-04-26T02:01:35.858Z,38.89
2023-04-26T02:02:36.096Z,38.89
2023-04-26T02:03:36.460Z,38.89
2023-04-26T02:04:36.519Z,38.89
2023-04-26T02:05:36.685Z,38.89
2023-04-26T02:06:36.866Z,38.89
2023-04-26T02:07:37.080Z,38.89
2023-04-26T02:08:37.263Z,38.89
2023-04-26T02:09:37.486Z,38.89
2023-04-26T02:10:37.674Z,38.89
2023-04-26T02:11:37.890Z,38.89
2023-04-26T02:12:38.082Z,38.89
2023-04-26T02:13:38.279Z,38.89
2023-04-26T02:14:38.469Z,38.89
2023-04-26T02:15:38.739Z,38.89
2023-04-26T02:16:39.032Z,38.89
2023-04-26T02:17:39.195Z,38.89
2023-04-26T02:18:39.350Z,38.89
2023-04-26T02:19:39.544Z,38.89
2023-04-26T02:20:39.735Z,38.89
2023-04-26T02:21:39.954Z,38.89
2023-04-26T02:22:40.151Z,38.89
2023-04-26T02:23:40.363Z,38.89
2023-04-26T02:24:40.552Z,38.89
2023-04-26T02:25:40.753Z,38.89
2023-04-26T02:26:40.937Z,38.89
2023-04-26T02:27:41.157Z,38.89
2023-04-26T02:28:41.362Z,38.89
2023-04-26T02:29:44.249Z,38.89
2023-04-26T02:30:41.754Z,38.89
2023-04-26T02:31:41.997Z,38.89
2023-04-26T02:32:42.169Z,38.89
2023-04-26T02:33:42.371Z,38.89
2023-04-26T02:34:42.591Z,38.89
2023-04-26T02:35:42.783Z,38.89
2023-04-26T02:36:42.967Z,38.89
2023-04-26T02:37:43.196Z,38.89
2023-04-26T02:38:43.397Z,38.89
2023-04-26T02:39:43.595Z,38.89
2023-04-26T02:40:43.783Z,38.89
2023-04-26T02:41:43.991Z,38.89
2023-04-26T02:42:44.220Z,38.89
2023-04-26T02:43:44.397Z,38.89
2023-04-26T02:44:44.589Z,38.89
2023-04-26T02:45:44.787Z,38.89
2023-04-26T02:46:45.001Z,38.89
2023-04-26T02:47:45.236Z,38.89
2023-04-26T02:48:45.414Z,38.89
2023-04-26T02:49:45.599Z,38.89
2023-04-26T02:50:45.766Z,38.89
2023-04-26T02:51:45.990Z,38.89
2023-04-26T02:52:46.190Z,38.89
2023-04-26T02:53:46.402Z,38.89
2023-04-26T02:54:46.602Z,38.89
2023-04-26T02:55:46.824Z,38.89
2023-04-26T02:56:47.032Z,38.89
2023-04-26T02:57:47.265Z,38.89
2023-04-26T02:58:47.458Z,38.89
2023-04-26T02:59:47.660Z,38.89
2023-04-26T03:00:47.928Z,38.89
2023-04-26T03:01:48.176Z,38.89
2023-04-26T03:02:48.533Z,38.89
2023-04-26T03:03:48.763Z,38.89
2023-04-26T03:04:48.791Z,38.89
2023-04-26T03:05:49.007Z,38.89
2023-04-26T03:06:49.188Z,38.89
2023-04-26T03:07:49.402Z,38.89
2023-04-26T03:08:49.826Z,38.89
2023-04-26T03:09:49.863Z,38.89
2023-04-26T03:10:50.058Z,38.89
2023-04-26T03:11:50.400Z,38.89
2023-04-26T03:12:50.519Z,38.89
2023-04-26T03:13:50.725Z,38.89
2023-04-26T03:14:50.920Z,38.89
2023-04-26T03:15:51.099Z,38.89
2023-04-26T03:16:51.311Z,38.89
2023-04-26T03:17:51.485Z,38.89
2023-04-26T03:18:51.776Z,38.89
2023-04-26T03:19:51.870Z,38.89
2023-04-26T03:20:52.061Z,38.89
2023-04-26T03:21:52.275Z,38.89
2023-04-26T03:22:52.478Z,38.89
2023-04-26T03:23:52.697Z,38.89
2023-04-26T03:24:52.891Z,38.89
2023-04-26T03:25:53.094Z,38.89
2023-04-26T03:26:53.285Z,38.89
2023-04-26T03:27:53.490Z,38.89
2023-04-26T03:28:53.964Z,38.89
2023-04-26T03:29:53.886Z,38.89
2023-04-26T03:30:54.073Z,38.90
2023-04-26T03:31:54.323Z,38.89
2023-04-26T03:32:54.573Z,38.89
2023-04-26T03:33:54.762Z,38.89
2023-04-26T03:34:54.959Z,38.89
2023-04-26T03:35:55.159Z,38.89
2023-04-26T03:36:55.371Z,38.89
2023-04-26T03:37:57.954Z,38.89
2023-04-26T03:38:55.743Z,38.89
2023-04-26T03:39:55.952Z,38.89
2023-04-26T03:40:56.146Z,38.89
2023-04-26T03:41:56.348Z,38.89
2023-04-26T03:42:56.520Z,38.89
2023-04-26T03:43:56.733Z,38.89
2023-04-26T03:44:56.925Z,38.89
2023-04-26T03:45:57.159Z,38.89
2023-04-26T03:46:57.324Z,38.89
2023-04-26T03:47:57.549Z,38.89
2023-04-26T03:48:57.713Z,38.89
2023-04-26T03:49:57.933Z,38.89
2023-04-26T03:50:58.129Z,38.89
2023-04-26T03:51:58.306Z,38.89
2023-04-26T03:52:58.509Z,38.89
2023-04-26T03:53:58.711Z,38.89
2023-04-26T03:54:58.905Z,38.89
2023-04-26T03:55:59.137Z,38.89
2023-04-26T03:56:59.326Z,38.89
2023-04-26T03:57:59.544Z,38.89
2023-04-26T03:58:59.756Z,38.90
2023-04-26T03:59:59.949Z,38.90
2023-04-26T04:01:00.122Z,38.90
2023-04-26T04:02:00.361Z,38.90
2023-04-26T04:03:00.620Z,38.90
2023-04-26T04:04:01.165Z,38.90
2023-04-26T04:05:01.090Z,38.90
2023-04-26T04:06:01.193Z,38.90
2023-04-26T04:07:01.388Z,39.00
2023-04-26T04:08:01.607Z,39.00
2023-04-26T04:09:01.757Z,39.00
2023-04-26T04:10:01.967Z,39.00
2023-04-26T04:11:02.148Z,39.00
2023-04-26T04:12:02.352Z,39.00
2023-04-26T04:13:02.552Z,39.00
2023-04-26T04:14:02.750Z,39.00
2023-04-26T04:15:02.937Z,39.00
2023-04-26T04:16:03.184Z,39.10
2023-04-26T04:17:03.363Z,39.10
2023-04-26T04:18:03.616Z,39.10
2023-04-26T04:19:03.776Z,39.10
2023-04-26T04:20:03.979Z,39.10
2023-04-26T04:21:04.181Z,39.10
2023-04-26T04:22:04.388Z,39.10
2023-04-26T04:23:04.595Z,39.10
2023-04-26T04:24:04.786Z,39.10
2023-04-26T04:25:04.974Z,39.10
2023-04-26T04:26:05.186Z,39.10
2023-04-26T04:27:05.368Z,39.20
2023-04-26T04:28:05.552Z,39.20
2023-04-26T04:29:05.754Z,39.20
2023-04-26T04:30:05.948Z,39.20
2023-04-26T04:31:06.179Z,39.20
2023-04-26T04:32:06.322Z,39.20
2023-04-26T04:33:06.600Z,39.20
2023-04-26T04:34:06.750Z,39.22
2023-04-26T04:35:06.948Z,39.22
2023-04-26T04:36:07.133Z,39.22
2023-04-26T04:37:07.361Z,39.22
2023-04-26T04:38:07.547Z,39.22
2023-04-26T04:39:07.774Z,39.22
2023-04-26T04:40:09.004Z,39.32
2023-04-26T04:41:08.157Z,39.32
2023-04-26T04:42:08.348Z,39.32
2023-04-26T04:43:08.563Z,39.32
2023-04-26T04:50:07.054Z,39.32
2023-04-26T04:52:21.473Z,39.32
2023-04-26T04:53:21.736Z,39.32
2023-04-26T04:54:22.029Z,39.32
2023-04-26T04:55:22.293Z,39.42
2023-04-26T04:56:22.560Z,39.32
2023-04-26T04:57:22.851Z,39.32
2023-04-26T04:58:23.162Z,39.42
2023-04-26T04:59:23.435Z,39.42
2023-04-26T05:00:23.632Z,39.42
2023-04-26T05:01:23.935Z,39.42
2023-04-26T05:02:24.341Z,39.42
2023-04-26T05:03:24.755Z,39.42
2023-04-26T05:04:24.895Z,39.42
2023-04-26T05:05:25.067Z,39.42
2023-04-26T05:06:25.300Z,39.42
2023-04-26T05:07:27.325Z,39.42
2023-04-26T05:08:25.835Z,39.42
2023-04-26T05:09:26.110Z,39.42
2023-04-26T05:10:26.358Z,39.42
2023-04-26T05:11:26.627Z,39.42
2023-04-26T05:12:26.848Z,39.42
2023-04-26T05:13:27.163Z,39.42
2023-04-26T05:14:27.431Z,39.42
2023-04-26T05:15:27.728Z,39.42
2023-04-26T05:16:28.049Z,39.42
2023-04-26T05:17:28.358Z,39.42
2023-04-26T05:18:28.579Z,39.42
2023-04-26T05:19:28.856Z,39.42
2023-04-26T05:20:29.102Z,39.42
2023-04-26T05:21:29.376Z,39.42
2023-04-26T05:22:29.634Z,39.42
2023-04-26T05:23:29.924Z,39.42
2023-04-26T05:24:30.174Z,39.42
2023-04-26T05:25:30.457Z,39.42
2023-04-26T05:26:30.718Z,39.42
2023-04-26T05:27:30.985Z,39.42
2023-04-26T05:28:31.250Z,39.42
2023-04-26T05:29:31.520Z,39.42
2023-04-26T05:30:31.796Z,39.52
2023-04-26T05:31:32.106Z,39.42
2023-04-26T05:32:32.409Z,39.42
2023-04-26T05:33:32.691Z,39.52
2023-04-26T05:34:32.941Z,39.52
2023-04-26T05:35:33.181Z,39.52
2023-04-26T05:36:33.440Z,39.42
2023-04-26T05:37:33.692Z,39.52
2023-04-26T05:38:33.962Z,39.52
2023-04-26T05:39:34.238Z,39.42
2023-04-26T05:40:34.524Z,39.52
2023-04-26T05:41:34.794Z,39.52
2023-04-26T05:42:35.067Z,39.52
2023-04-26T05:43:35.323Z,39.42
2023-04-26T05:44:35.590Z,39.42
2023-04-26T05:45:35.925Z,39.52
2023-04-26T05:46:36.173Z,39.42
2023-04-26T05:47:36.467Z,39.42
2023-04-26T05:48:36.752Z,39.52
2023-04-26T05:49:37.013Z,39.42
2023-04-26T05:50:38.917Z,39.52
2023-04-26T05:51:37.557Z,39.52
2023-04-26T05:52:37.875Z,39.42
2023-04-26T05:53:38.115Z,39.52
2023-04-26T05:54:38.396Z,39.42
2023-04-26T05:55:38.657Z,39.42
2023-04-26T05:56:38.925Z,39.42
2023-04-26T05:57:39.232Z,39.42
2023-04-26T05:58:39.480Z,39.42
2023-04-26T05:59:39.716Z,39.42
2023-04-26T06:00:39.995Z,39.42
2023-04-26T06:01:40.269Z,39.42
2023-04-26T06:02:40.635Z,39.42
2023-04-26T06:03:40.965Z,39.52
2023-04-26T06:04:41.264Z,39.52
2023-04-26T06:05:41.606Z,39.42
2023-04-26T06:06:41.585Z,39.42
2023-04-26T06:07:41.845Z,39.52
2023-04-26T06:08:42.119Z,39.52
2023-04-26T06:09:42.376Z,39.42
2023-04-26T06:10:42.683Z,39.42
2023-04-26T06:11:42.960Z,39.42
2023-04-26T06:12:43.261Z,39.42
2023-04-26T06:13:43.545Z,39.42
2023-04-26T06:14:43.833Z,39.42
2023-04-26T06:15:44.093Z,39.42
2023-04-26T06:16:44.366Z,39.42
2023-04-26T06:17:44.628Z,39.42
2023-04-26T06:18:44.908Z,39.42
2023-04-26T06:19:45.154Z,39.42
2023-04-26T06:20:45.426Z,39.42
2023-04-26T06:21:45.695Z,39.42
2023-04-26T06:22:45.978Z,39.42
2023-04-26T06:23:46.255Z,39.42
2023-04-26T06:24:46.541Z,39.42
2023-04-26T06:25:46.802Z,39.42
2023-04-26T06:26:47.085Z,39.42
2023-04-26T06:27:47.346Z,39.42
2023-04-26T06:28:47.592Z,39.42
2023-04-26T06:29:47.866Z,39.42
2023-04-26T06:30:48.295Z,39.42
2023-04-26T06:31:48.373Z,39.42
2023-04-26T06:32:48.823Z,39.52
2023-04-26T06:33:48.934Z,39.42
2023-04-26T06:34:49.198Z,39.52
2023-04-26T06:35:49.464Z,39.42
2023-04-26T06:36:49.770Z,39.42
2023-04-26T06:37:50.041Z,39.52
2023-04-26T06:38:50.326Z,39.42
2023-04-26T06:39:50.564Z,39.52
2023-04-26T06:40:50.883Z,39.42
2023-04-26T06:41:52.562Z,39.42
2023-04-26T06:42:51.460Z,39.52
2023-04-26T06:43:51.984Z,39.42
2023-04-26T06:44:52.004Z,39.52
2023-04-26T06:45:52.288Z,39.42
2023-04-26T06:46:52.558Z,39.52
2023-04-26T06:50:28.056Z,39.82
2023-04-26T06:51:28.248Z,39.62
2023-04-26T06:52:28.497Z,39.52
2023-04-26T06:53:28.780Z,39.62
2023-04-26T06:54:29.174Z,39.62
2023-04-26T06:55:29.282Z,39.62
2023-04-26T06:56:29.568Z,39.62
2023-04-26T06:57:29.812Z,39.62
2023-04-26T06:58:30.114Z,39.62
2023-04-26T06:59:30.399Z,39.62
2023-04-26T07:00:30.651Z,39.62
2023-04-26T07:01:30.952Z,39.62
2023-04-26T07:02:31.346Z,39.62
2023-04-26T07:03:31.604Z,39.62
2023-04-26T07:04:32.068Z,39.62
2023-04-26T07:05:31.998Z,39.52
2023-04-26T07:06:32.263Z,39.50
2023-04-26T07:07:32.537Z,39.50
2023-04-26T07:08:32.815Z,39.60
2023-04-26T07:09:33.074Z,39.60
2023-04-26T07:10:34.321Z,39.50
2023-04-26T07:11:33.587Z,39.50
2023-04-26T07:12:33.866Z,39.50
2023-04-26T07:13:34.408Z,39.50
2023-04-26T07:14:34.451Z,39.50
2023-04-26T07:15:34.580Z,39.40
2023-04-26T07:16:34.880Z,39.50
2023-04-26T07:17:35.135Z,39.50
2023-04-26T07:18:35.412Z,39.50
2023-04-26T07:19:35.697Z,39.50
2023-04-26T07:20:35.966Z,39.50
2023-04-26T07:21:36.243Z,39.50
2023-04-26T07:22:36.531Z,39.50
2023-04-26T07:23:36.803Z,39.48
2023-04-26T07:24:37.101Z,39.58
2023-04-26T07:25:37.372Z,39.58
2023-04-26T07:26:37.641Z,39.58
2023-04-26T07:27:37.924Z,39.58
2023-04-26T07:28:38.217Z,39.58
2023-04-26T07:29:38.548Z,39.58
2023-04-26T07:30:38.782Z,39.58
2023-04-26T07:31:39.060Z,39.58
2023-04-26T07:32:39.452Z,39.58
2023-04-26T07:33:39.745Z,39.68
2023-04-26T07:34:39.913Z,39.68
2023-04-26T07:35:40.189Z,39.68
2023-04-26T07:36:40.479Z,39.68
2023-04-26T07:37:40.744Z,39.78
2023-04-26T07:38:41.064Z,39.78
2023-04-26T07:39:41.363Z,39.68
2023-04-26T07:40:41.525Z,39.68
2023-04-26T07:41:43.736Z,39.66
2023-04-26T07:42:42.151Z,39.86
2023-04-26T07:43:42.290Z,39.76
2023-04-26T07:44:42.568Z,39.76
2023-04-26T07:45:42.901Z,39.76
2023-04-26T07:46:43.128Z,39.76
2023-04-26T07:47:43.502Z,39.76
2023-04-26T07:48:43.669Z,39.66
2023-04-26T07:49:45.742Z,39.76
2023-04-26T07:50:44.121Z,39.64
2023-04-26T07:51:44.383Z,39.64
2023-04-26T07:52:44.671Z,39.54
2023-04-26T07:53:44.949Z,39.64
2023-04-26T07:54:45.219Z,39.64
2023-04-26T07:55:45.490Z,39.54
2023-04-26T07:56:45.792Z,39.64
2023-04-26T07:57:46.080Z,39.64
2023-04-26T07:58:46.392Z,39.64
2023-04-26T07:59:46.535Z,39.54
2023-04-26T08:00:46.866Z,39.64
2023-04-26T08:01:47.068Z,39.74
2023-04-26T08:02:47.431Z,39.74
2023-04-26T08:03:47.925Z,39.64
2023-04-26T08:04:48.089Z,39.54
2023-04-26T08:05:48.310Z,39.54
2023-04-26T08:06:48.366Z,39.54
2023-04-26T08:07:48.670Z,39.42
2023-04-26T08:08:48.848Z,39.42
2023-04-26T08:09:49.156Z,39.32
2023-04-26T08:10:49.437Z,39.32
2023-04-26T08:11:49.753Z,39.32
2023-04-26T08:12:49.935Z,39.32
2023-04-26T08:13:50.663Z,39.32
2023-04-26T08:14:50.491Z,39.32
2023-04-26T08:15:50.750Z,39.32
2023-04-26T08:16:51.110Z,39.23
2023-04-26T08:17:51.279Z,39.23
2023-04-26T08:18:51.508Z,39.12
2023-04-26T08:19:51.771Z,39.12
2023-04-26T08:20:52.055Z,39.12
2023-04-26T08:21:52.327Z,39.12
2023-04-26T08:22:52.622Z,39.12
2023-04-26T08:23:53.231Z,39.03
2023-04-26T08:24:53.129Z,39.03
2023-04-26T08:25:53.408Z,39.03
2023-04-26T08:26:53.694Z,39.03
2023-04-26T08:27:53.958Z,39.03
2023-04-26T08:28:54.264Z,39.03
2023-04-26T08:29:54.530Z,39.03
2023-04-26T08:30:54.878Z,39.03
2023-04-26T08:31:55.111Z,39.03
2023-04-26T08:32:55.440Z,38.93
2023-04-26T08:33:55.694Z,38.93
2023-04-26T08:34:55.976Z,38.93
2023-04-26T08:35:56.269Z,38.93
2023-04-26T08:36:56.559Z,38.81
2023-04-26T08:37:56.836Z,38.81
2023-04-26T08:38:57.132Z,38.82
2023-04-26T08:39:57.478Z,38.81
2023-04-26T08:40:57.708Z,38.81
2023-04-26T08:41:57.978Z,38.71
2023-04-26T08:42:58.260Z,38.71
2023-04-26T08:43:58.552Z,38.71
2023-04-26T08:44:58.812Z,38.71
2023-04-26T08:45:59.152Z,38.71
2023-04-26T08:46:59.414Z,38.61
2023-04-26T08:47:59.681Z,38.61
2023-04-26T08:48:59.954Z,38.61
2023-04-26T08:50:00.220Z,38.61
2023-04-26T08:51:00.481Z,38.61
2023-04-26T08:52:00.747Z,38.61
2023-04-26T08:53:01.041Z,38.61
2023-04-26T08:54:03.471Z,38.51
2023-04-26T08:55:01.599Z,38.51
2023-04-26T08:56:01.892Z,38.51
2023-04-26T08:57:02.171Z,38.51
2023-04-26T08:58:02.426Z,38.51
2023-04-26T08:59:02.705Z,38.51
2023-04-26T09:00:02.982Z,38.51
2023-04-26T09:01:03.254Z,38.51
2023-04-26T09:02:03.613Z,38.51
2023-04-26T09:03:03.860Z,38.51
2023-04-26T09:04:04.104Z,38.41
2023-04-26T09:05:04.412Z,38.41
2023-04-26T09:06:04.612Z,38.41
2023-04-26T09:07:04.715Z,38.51
2023-04-26T09:08:05.000Z,38.51
2023-04-26T09:09:05.273Z,38.51
2023-04-26T09:10:05.562Z,38.51
2023-04-26T09:11:05.792Z,38.51
2023-04-26T09:12:06.061Z,38.51
2023-04-26T09:13:06.320Z,38.51
2023-04-26T09:14:06.606Z,38.51
2023-04-26T09:15:06.904Z,38.51
2023-04-26T09:16:07.206Z,38.51
2023-04-26T09:17:07.429Z,38.51
2023-04-26T09:18:07.751Z,38.51
2023-04-26T09:19:07.919Z,38.41
2023-04-26T09:20:08.243Z,38.41
2023-04-26T09:21:08.314Z,38.41
2023-04-26T09:22:08.613Z,38.41
2023-04-26T09:23:08.874Z,38.41
2023-04-26T09:24:09.156Z,38.41
2023-04-26T09:25:09.422Z,38.41
2023-04-26T09:26:09.680Z,38.41
2023-04-26T09:27:09.931Z,38.31
2023-04-26T09:28:10.245Z,38.41
2023-04-26T09:29:10.403Z,38.29
2023-04-26T09:30:10.738Z,38.20
2023-04-26T09:31:10.958Z,38.09
2023-04-26T09:32:11.247Z,38.09
2023-04-26T09:33:11.444Z,37.99
2023-04-26T09:34:11.700Z,37.99
2023-04-26T09:35:11.971Z,37.88
2023-04-26T09:36:12.280Z,37.88
2023-04-26T09:37:12.537Z,37.77
2023-04-26T09:38:13.885Z,37.68
2023-04-26T09:39:13.082Z,37.68
2023-04-26T09:40:13.375Z,37.56
2023-04-26T09:41:13.654Z,37.56
2023-04-26T09:42:13.934Z,37.56
2023-04-26T09:43:14.241Z,37.56
2023-04-26T09:44:14.481Z,37.66
2023-04-26T09:45:14.780Z,37.66
2023-04-26T09:46:15.086Z,37.66
2023-04-26T09:47:15.327Z,37.66
2023-04-26T09:48:15.608Z,37.68
2023-04-26T09:49:15.866Z,37.68
2023-04-26T09:50:16.147Z,37.68
2023-04-26T09:51:16.405Z,37.77
2023-04-26T09:52:16.679Z,37.77
2023-04-26T09:53:16.940Z,37.77
2023-04-26T09:54:17.199Z,37.77
2023-04-26T09:55:31.156Z,37.77
2023-04-26T09:56:18.821Z,37.77
2023-04-26T09:57:17.948Z,37.77
2023-04-26T09:58:18.192Z,37.77
2023-04-26T09:59:18.463Z,37.77
2023-04-26T10:00:18.771Z,37.77
2023-04-26T10:01:18.922Z,37.77
2023-04-26T10:02:19.219Z,37.77
2023-04-26T10:03:19.670Z,37.77
2023-04-26T10:04:19.856Z,37.77
2023-04-26T10:05:19.982Z,37.77
2023-04-26T10:06:20.266Z,37.77
2023-04-26T10:07:20.540Z,37.77
2023-04-26T10:08:20.774Z,37.77
2023-04-26T10:09:21.000Z,37.77
2023-04-26T10:10:21.294Z,37.77
2023-04-26T10:11:21.557Z,37.77
2023-04-26T10:12:21.844Z,37.77
2023-04-26T10:13:22.115Z,37.77
2023-04-26T10:14:22.403Z,37.68
2023-04-26T10:15:22.664Z,37.77
2023-04-26T10:16:22.978Z,37.68
2023-04-26T10:17:23.167Z,37.68
2023-04-26T10:18:23.454Z,37.77
2023-04-26T10:19:23.712Z,37.68
2023-04-26T10:20:24.001Z,37.68
2023-04-26T10:21:24.286Z,37.58
2023-04-26T10:22:24.573Z,37.68
2023-04-26T10:23:24.828Z,37.77
2023-04-26T10:24:25.143Z,37.77
2023-04-26T10:25:25.375Z,37.77
2023-04-26T10:26:25.661Z,37.77
2023-04-26T10:27:25.920Z,37.77
2023-04-26T10:28:26.166Z,37.77
2023-04-26T10:29:26.450Z,37.77
2023-04-26T10:30:26.759Z,37.77
2023-04-26T10:31:27.047Z,37.77
2023-04-26T10:32:27.291Z,37.88
2023-04-26T10:33:27.551Z,37.88
2023-04-26T10:34:27.799Z,37.88
2023-04-26T10:35:28.087Z,37.88
2023-04-26T10:36:28.351Z,37.77
2023-04-26T10:37:28.600Z,37.77
2023-04-26T10:38:28.873Z,37.88
2023-04-26T10:39:29.129Z,37.88
2023-04-26T10:40:29.417Z,37.77
2023-04-26T10:41:29.674Z,37.88
2023-04-26T10:42:29.953Z,37.77
2023-04-26T10:43:30.243Z,37.77
2023-04-26T10:44:30.513Z,37.77
2023-04-26T10:45:30.789Z,37.77
2023-04-26T10:46:31.110Z,37.08
2023-04-26T10:47:31.274Z,37.48
2023-04-26T10:48:32.484Z,37.48
2023-04-26T10:49:31.778Z,37.58
2023-04-26T10:50:32.049Z,37.68
2023-04-26T10:51:32.311Z,37.77
2023-04-26T10:52:32.557Z,37.77
2023-04-26T10:53:32.821Z,37.77
2023-04-26T10:54:33.084Z,37.77
2023-04-26T10:55:33.345Z,37.77
2023-04-26T10:56:33.618Z,37.68
2023-04-26T10:57:33.868Z,37.68
2023-04-26T10:58:34.151Z,37.68
2023-04-26T10:59:47.186Z,37.68
2023-04-26T11:00:35.661Z,37.77
2023-04-26T11:01:34.871Z,37.77
